x

Matinicus Rock, Me (mism1) Weather Station

8:00pm - Fri 30th Sep 2016 All times are EDT. -4 hours from GMT.

  • Wind
    13mph, 14mph gusts
  • Air Temp 54°f
  • Sea Pressure 1030.6mb
  • Matinicus Rock, Me
  • Matinicus Rock, Me

More Historic Weather Station data

Upgrade to MSW Pro to gain access to the past 30 days of data for over 8000 Wavebouys and Weather Stations around the globe.

Join Pro

Comparision Forecast

View Surf forecast
   
Fri 09/30 8:00pm 13 14 mph 1030.6mb 54f
7:00pm 11 13 mph 1030.8mb 54f
6:00pm 14
mph
1030.9mb 54f
5:00pm 14 15 mph 1031.1mb 54f
4:00pm 15 16 mph 1031.5mb 54f
3:00pm 16
mph
1032mb 53f
2:00pm 18 20 mph 1032.3mb 53f
1:00pm 17 20 mph 1032.6mb 54f
12:00pm 21 22 mph 1033.1mb 53f
11:00am 20 21 mph 1033.4mb 53f
10:00am 20 21 mph 1033.5mb 53f
9:00am 20 21 mph 1033.6mb 53f
8:00am 18 21 mph 1033.1mb 53f
7:00am 17 20 mph 1033.1mb 53f
6:00am 16 17 mph 1033.2mb 53f
5:00am 16 18 mph 1033.1mb 53f
4:00am 15 16 mph 1033mb 53f
3:00am 14 16 mph 1033.2mb 54f
2:00am 14 16 mph 1033.5mb 55f
1:00am 13 14 mph 1033.7mb 55f
12:00am 13 14 mph 1033.6mb 54f
Thu 09/29 11:00pm 9
mph
1033.9mb 54f
10:00pm 11
mph
1033.8mb 54f
9:00pm 13
mph
1033.3mb 55f
8:00pm 7 8 mph 1033.3mb 54f
7:00pm 9 10 mph 1033.1mb 55f
6:00pm 6
mph
1032.8mb 55f
5:00pm 6 7 mph 1032.6mb 57f
4:00pm 8
mph
1032.4mb 56f
3:00pm 7 8 mph 1032.7mb 57f
2:00pm 11 13 mph 1032.5mb 56f
1:00pm 16 20 mph 1032.6mb 56f
12:00pm 16 21 mph 1032.7mb 54f
11:00am 20 22 mph 1032.6mb 53f
10:00am 21 23 mph 1032.5mb 52f
9:00am 23 26 mph 1031.8mb 51f
8:00am 23 26 mph 1031.3mb 51f
7:00am 24 26 mph 1030.6mb 51f
6:00am 25 28 mph 1029.7mb 51f
5:00am 24 30 mph 1029.2mb 51f
4:00am 26 30 mph 1028.7mb 51f
3:00am 24 28 mph 1029mb 52f
2:00am 23 25 mph 1029.1mb 53f
1:00am 24 29 mph 1028.8mb 53f
12:00am 25 30 mph 1028.8mb 54f
Wed 09/28 11:00pm 24 28 mph 1028.7mb 55f
10:00pm 29 32 mph 1028.2mb 55f
9:00pm 26 30 mph 1027.8mb 56f
8:00pm 30 33 mph 1027.1mb 56f
7:00pm 26 29 mph 1026.6mb 55f
6:00pm 25 29 mph 1026.2mb 56f
5:00pm 28 31 mph 1025.6mb 56f
4:00pm 28 31 mph 1025.3mb 55f
3:00pm 29 31 mph 1025.1mb 55f
2:00pm 23 25 mph 1025.2mb 54f
1:00pm 28 29 mph 1024.9mb 53f
12:00pm 28 30 mph 1025.1mb 53f
11:00am 25 28 mph 1025.2mb 52f
10:00am 26 30 mph 1024.9mb 51f
9:00am 26 29 mph 1024.4mb 51f
8:00am 25 26 mph 1023.7mb 52f
7:00am 20 25 mph 1022.9mb 52f
6:00am 23 26 mph 1021.8mb 53f
5:00am 23 26 mph 1021.2mb 53f
4:00am 22 24 mph 1020.5mb 53f
3:00am 22 24 mph 1019.9mb 53f
2:00am 21 22 mph 1019.6mb 53f
1:00am 24 25 mph 1019.1mb 55f
12:00am 22 23 mph 1018.6mb 55f
Tue 09/27 11:00pm 24 25 mph 1017.6mb 55f
10:00pm 15 16 mph 1017.1mb 56f
9:00pm 16 18 mph 1015.7mb 56f
8:00pm 17 18 mph 1014.8mb 57f
7:00pm 9 10 mph 1014mb 58f
6:00pm 14
mph
1013.5mb 58f
5:00pm 11
mph
1012.9mb 59f
4:00pm 9 10 mph 1011.9mb 59f
3:00pm 10 13 mph 1011.1mb 58f
2:00pm 7
mph
1011.5mb 58f
1:00pm 2
mph
1011.2mb 60f
12:00pm 3 5 mph 1011.8mb 57f
11:00am 11
mph
1012.2mb 57f
10:00am 15 16 mph 1012.5mb 58f
9:00am 14 15 mph 1012.4mb 57f
8:00am 17 18 mph 1012.5mb 57f
7:00am 26 30 mph 1012.4mb 57f
6:00am 23 25 mph 1012.3mb 58f
5:00am 23 24 mph 1012.8mb 58f
4:00am 23 24 mph 1013.2mb 58f
3:00am 16 17 mph 1014.1mb 57f
2:00am 18 20 mph 1014.9mb 57f